Terminal Aerodrome Forecast
Issued by NWS

Home | Current Version | Previous Version | Text Only | Print | Product List | Glossary On
Versions: 1 2 3 4 5 6 7 8 9 10 11 12 13 14 15 16 17 18 19 20 21
000
FTUS43 KDMX 251132
TAFFOD
TAF
KFOD 251132Z 2512/2612 31008KT P6SM SCT250
     FM252000 26008KT P6SM SCT200
     FM252300 21007KT P6SM BKN120=

USA.gov is the U.S. government's official web portal to all federal, state and local government web resources and services.